createdAt,value
2016-11-07T00:00:18.871Z,0
2016-11-07T00:01:27.549Z,0
2016-11-07T00:02:36.234Z,0
2016-11-07T00:03:44.920Z,0
2016-11-07T00:04:53.605Z,0
2016-11-07T00:06:02.299Z,0
2016-11-07T00:07:10.984Z,0
2016-11-07T00:08:19.666Z,0
2016-11-07T00:09:28.350Z,0
2016-11-07T00:10:37.032Z,0
2016-11-07T00:11:45.757Z,0
2016-11-07T00:12:54.439Z,0
2016-11-07T00:14:03.143Z,0
2016-11-07T00:15:11.825Z,0
2016-11-07T00:16:20.520Z,0
2016-11-07T00:17:29.202Z,0
2016-11-07T00:18:37.886Z,0
2016-11-07T00:19:46.571Z,0
2016-11-07T00:20:55.255Z,0
2016-11-07T00:22:03.937Z,0
2016-11-07T00:23:12.618Z,0
2016-11-07T00:24:21.300Z,0
2016-11-07T00:25:30.026Z,0
2016-11-07T00:26:38.709Z,0
2016-11-07T00:27:47.396Z,0
2016-11-07T00:28:56.427Z,0
2016-11-07T00:30:05.107Z,0
2016-11-07T00:31:13.797Z,0
2016-11-07T00:32:22.474Z,0
2016-11-07T00:33:31.161Z,0
2016-11-07T00:34:39.852Z,0
2016-11-07T00:35:48.537Z,0
2016-11-07T00:36:57.225Z,0
2016-11-07T00:38:05.910Z,0
2016-11-07T00:39:14.597Z,0
2016-11-07T00:40:23.284Z,0
2016-11-07T00:41:31.969Z,0
2016-11-07T00:42:40.650Z,0
2016-11-07T00:43:49.415Z,0
2016-11-07T00:44:58.133Z,0
2016-11-07T00:46:06.822Z,0
2016-11-07T00:47:15.510Z,0
2016-11-07T00:48:24.195Z,0
2016-11-07T00:49:32.913Z,0
2016-11-07T00:50:41.604Z,0
2016-11-07T00:51:50.289Z,0
2016-11-07T00:52:58.972Z,0
2016-11-07T00:54:07.662Z,0
2016-11-07T00:55:16.344Z,0
2016-11-07T00:56:25.033Z,0
2016-11-07T00:57:33.749Z,0
2016-11-07T00:58:42.434Z,0
2016-11-07T00:59:51.150Z,0
2016-11-07T01:00:59.831Z,0
2016-11-07T01:02:08.518Z,0
2016-11-07T01:03:17.202Z,0
2016-11-07T01:04:25.885Z,0
2016-11-07T01:05:34.573Z,0
2016-11-07T01:06:43.257Z,0
2016-11-07T01:07:51.938Z,0
2016-11-07T01:09:00.623Z,0
2016-11-07T01:10:09.344Z,0
2016-11-07T01:11:18.031Z,0
2016-11-07T01:12:26.919Z,0
2016-11-07T01:13:35.605Z,0
2016-11-07T01:14:44.290Z,0
2016-11-07T01:15:52.976Z,0
2016-11-07T01:17:01.661Z,0
2016-11-07T01:18:10.346Z,0
2016-11-07T01:19:19.045Z,0
2016-11-07T01:20:27.727Z,0
2016-11-07T01:21:36.424Z,0
2016-11-07T01:22:45.119Z,0
2016-11-07T01:23:53.799Z,0
2016-11-07T01:25:02.485Z,0
2016-11-07T01:26:11.170Z,0
2016-11-07T01:27:19.856Z,0
2016-11-07T01:28:28.541Z,0
2016-11-07T01:29:37.258Z,0
2016-11-07T01:30:45.939Z,0
2016-11-07T01:31:54.621Z,0
2016-11-07T01:33:03.621Z,0
2016-11-07T01:34:12.303Z,0
2016-11-07T01:35:20.993Z,0
2016-11-07T01:36:29.671Z,0
2016-11-07T01:37:38.365Z,0
2016-11-07T01:38:47.050Z,0
2016-11-07T01:39:55.733Z,0
2016-11-07T01:41:04.417Z,0
2016-11-07T01:42:13.106Z,0
2016-11-07T01:43:21.800Z,0
2016-11-07T01:44:30.495Z,0
2016-11-07T01:45:39.182Z,0
2016-11-07T01:46:47.865Z,0
2016-11-07T01:47:56.549Z,0
2016-11-07T01:49:05.235Z,0
2016-11-07T01:50:13.917Z,0
2016-11-07T01:51:22.629Z,0
2016-11-07T01:52:31.316Z,0
2016-11-07T01:53:40.006Z,0
2016-11-07T01:54:49.004Z,0
2016-11-07T01:55:57.730Z,0
2016-11-07T01:57:06.420Z,0
2016-11-07T01:58:15.107Z,0
2016-11-07T01:59:23.794Z,0
2016-11-07T02:00:32.484Z,0
2016-11-07T02:01:41.168Z,0
2016-11-07T02:02:49.848Z,0
2016-11-07T02:03:58.563Z,0
2016-11-07T02:05:07.246Z,0
2016-11-07T02:06:15.927Z,0
2016-11-07T02:07:24.612Z,0
2016-11-07T02:08:33.294Z,0
2016-11-07T02:09:41.977Z,0
2016-11-07T02:10:50.656Z,0
2016-11-07T02:11:59.347Z,0
2016-11-07T02:13:08.660Z,0
2016-11-07T02:14:17.345Z,0
2016-11-07T02:15:26.030Z,0
2016-11-07T02:16:35.031Z,0
2016-11-07T02:17:43.753Z,0
2016-11-07T02:18:52.432Z,0
2016-11-07T02:20:01.114Z,0
2016-11-07T02:21:10.126Z,0
2016-11-07T02:22:18.837Z,0
2016-11-07T02:23:27.522Z,0
2016-11-07T02:24:36.207Z,0
2016-11-07T02:25:44.890Z,0
2016-11-07T02:26:53.578Z,0
2016-11-07T02:28:02.271Z,0
2016-11-07T02:29:10.959Z,0
2016-11-07T02:30:19.639Z,0
2016-11-07T02:31:28.359Z,0
2016-11-07T02:32:37.359Z,0
2016-11-07T02:33:46.042Z,0
2016-11-07T02:34:54.725Z,0
2016-11-07T02:36:03.404Z,0
2016-11-07T02:37:12.091Z,0
2016-11-07T02:38:20.776Z,0
2016-11-07T02:39:29.458Z,0
2016-11-07T02:40:38.139Z,0
2016-11-07T02:41:46.830Z,0
2016-11-07T02:42:55.513Z,0
2016-11-07T02:44:04.513Z,0
2016-11-07T02:45:13.200Z,0
2016-11-07T02:46:21.897Z,0
2016-11-07T02:47:30.615Z,0
2016-11-07T02:48:39.294Z,0
2016-11-07T02:49:47.995Z,0
2016-11-07T02:50:56.678Z,0
2016-11-07T02:52:05.355Z,0
2016-11-07T02:53:14.038Z,0
2016-11-07T02:54:22.745Z,0
2016-11-07T02:55:31.482Z,0
2016-11-07T02:56:40.160Z,0
2016-11-07T02:57:48.887Z,0
2016-11-07T02:58:57.568Z,0
2016-11-07T03:00:06.251Z,0
2016-11-07T03:01:14.949Z,0
2016-11-07T03:02:23.629Z,0
2016-11-07T03:03:32.314Z,0
2016-11-07T03:04:40.997Z,0
2016-11-07T03:05:49.682Z,0
2016-11-07T03:06:58.364Z,0
2016-11-07T03:08:07.049Z,0
2016-11-07T03:09:15.732Z,0
2016-11-07T03:10:24.452Z,0
2016-11-07T03:11:33.130Z,0
2016-11-07T03:12:41.807Z,0
2016-11-07T03:13:50.496Z,0
2016-11-07T03:14:59.204Z,0
2016-11-07T03:16:07.930Z,0
2016-11-07T03:17:16.611Z,0
2016-11-07T03:18:25.426Z,0
2016-11-07T03:19:34.112Z,0
2016-11-07T03:20:42.791Z,0
2016-11-07T03:21:51.467Z,0
2016-11-07T03:23:00.152Z,0
2016-11-07T03:24:08.836Z,0
2016-11-07T03:25:17.519Z,0
2016-11-07T03:26:26.207Z,0
2016-11-07T03:27:34.895Z,0
2016-11-07T03:28:43.578Z,0
2016-11-07T03:29:52.297Z,0
2016-11-07T03:31:00.981Z,0
2016-11-07T03:32:09.985Z,0
2016-11-07T03:33:18.667Z,0
2016-11-07T03:34:27.355Z,0
2016-11-07T03:35:36.038Z,0
2016-11-07T03:36:44.722Z,0
2016-11-07T03:37:53.438Z,0
2016-11-07T03:39:02.121Z,0
2016-11-07T03:40:10.841Z,0
2016-11-07T03:41:19.527Z,0
2016-11-07T03:42:28.252Z,0
2016-11-07T03:43:36.943Z,0
2016-11-07T03:44:45.625Z,0
2016-11-07T03:45:54.306Z,0
2016-11-07T03:47:02.990Z,0
2016-11-07T03:48:11.677Z,0
2016-11-07T03:49:20.360Z,0
2016-11-07T03:50:29.065Z,0
2016-11-07T03:51:37.753Z,0
2016-11-07T03:52:46.443Z,0
2016-11-07T03:53:55.128Z,0
2016-11-07T03:55:03.820Z,0
2016-11-07T03:56:12.500Z,0
2016-11-07T03:57:21.182Z,0
2016-11-07T03:58:29.862Z,0
2016-11-07T03:59:38.549Z,0
2016-11-07T04:00:47.235Z,0
2016-11-07T04:01:55.915Z,0
2016-11-07T04:03:04.599Z,0
2016-11-07T04:04:13.281Z,0
2016-11-07T04:05:21.964Z,0
2016-11-07T04:06:30.653Z,0
2016-11-07T04:07:39.337Z,0
2016-11-07T04:08:48.016Z,0
2016-11-07T04:09:56.711Z,0
2016-11-07T04:11:05.395Z,0
2016-11-07T04:12:14.080Z,0
2016-11-07T04:13:22.771Z,0
2016-11-07T04:14:31.449Z,0
2016-11-07T04:15:40.138Z,0
2016-11-07T04:16:48.821Z,0
2016-11-07T04:17:57.509Z,0
2016-11-07T04:19:06.506Z,0
2016-11-07T04:20:15.192Z,0
2016-11-07T04:21:23.876Z,0
2016-11-07T04:22:32.561Z,0
2016-11-07T04:23:41.242Z,0
2016-11-07T04:24:49.931Z,0
2016-11-07T04:25:58.613Z,0
2016-11-07T04:27:07.302Z,0
2016-11-07T04:28:15.984Z,0
2016-11-07T04:29:24.668Z,0
2016-11-07T04:30:33.354Z,0
2016-11-07T04:31:42.052Z,0
2016-11-07T04:32:50.734Z,0
2016-11-07T04:33:59.417Z,0
2016-11-07T04:35:08.110Z,0
2016-11-07T04:36:16.793Z,0
2016-11-07T04:37:25.507Z,0
2016-11-07T04:38:35.937Z,0
2016-11-07T04:39:44.651Z,0
2016-11-07T04:40:53.662Z,0
2016-11-07T04:42:02.350Z,0
2016-11-07T04:43:11.034Z,0
2016-11-07T04:44:19.762Z,0
2016-11-07T04:45:28.447Z,0
2016-11-07T04:46:37.126Z,0
2016-11-07T04:47:45.811Z,0
2016-11-07T04:48:54.493Z,0
2016-11-07T04:50:03.225Z,0
2016-11-07T04:51:11.907Z,0
2016-11-07T04:52:20.593Z,0
2016-11-07T04:53:29.276Z,0
2016-11-07T04:54:37.961Z,0
2016-11-07T04:55:46.936Z,0
2016-11-07T04:56:55.620Z,0
2016-11-07T04:58:04.330Z,0
2016-11-07T04:59:13.023Z,0
2016-11-07T05:00:21.708Z,0
2016-11-07T05:01:30.487Z,0
2016-11-07T05:02:39.167Z,0
2016-11-07T05:03:47.858Z,0
2016-11-07T05:04:56.540Z,0
2016-11-07T05:06:05.225Z,0
2016-11-07T05:07:13.959Z,0
2016-11-07T05:08:22.639Z,0
2016-11-07T05:09:31.646Z,0
2016-11-07T05:10:40.335Z,0
2016-11-07T05:11:49.015Z,0
2016-11-07T05:12:57.746Z,0
2016-11-07T05:14:06.432Z,0
2016-11-07T05:15:15.117Z,0
2016-11-07T05:16:23.845Z,0
2016-11-07T05:17:32.531Z,0
2016-11-07T05:18:41.266Z,0
2016-11-07T05:19:49.947Z,0
2016-11-07T05:20:58.634Z,0
2016-11-07T05:22:07.352Z,0
2016-11-07T05:23:16.038Z,0
2016-11-07T05:24:24.771Z,0
2016-11-07T05:25:33.455Z,0
2016-11-07T05:26:42.141Z,0
2016-11-07T05:27:50.818Z,0
2016-11-07T05:28:59.543Z,0
2016-11-07T05:30:08.272Z,0
2016-11-07T05:31:16.959Z,0
2016-11-07T05:32:25.639Z,0
2016-11-07T05:33:34.639Z,0
2016-11-07T05:34:43.325Z,0
2016-11-07T05:35:52.056Z,0
2016-11-07T05:37:00.775Z,0
2016-11-07T05:38:09.456Z,0
2016-11-07T05:39:18.149Z,0
2016-11-07T05:40:26.835Z,0
2016-11-07T05:41:35.571Z,0
2016-11-07T05:42:44.256Z,0
2016-11-07T05:43:52.942Z,0
2016-11-07T05:45:01.660Z,0
2016-11-07T05:46:10.346Z,0
2016-11-07T05:47:19.027Z,0
2016-11-07T05:48:27.714Z,0
2016-11-07T05:49:36.403Z,0
2016-11-07T05:50:45.083Z,0
2016-11-07T05:51:53.766Z,0
2016-11-07T05:53:02.449Z,0
2016-11-07T05:54:11.130Z,0
2016-11-07T05:55:19.811Z,0
2016-11-07T05:56:28.491Z,0
2016-11-07T05:57:37.173Z,0
2016-11-07T05:58:45.855Z,0
2016-11-07T05:59:54.538Z,0
2016-11-07T06:01:03.218Z,0
2016-11-07T06:02:11.902Z,0
2016-11-07T06:03:20.586Z,0
2016-11-07T06:04:29.270Z,0
2016-11-07T06:05:37.954Z,0
2016-11-07T06:06:46.947Z,0
2016-11-07T06:07:55.628Z,0
2016-11-07T06:09:04.344Z,0
2016-11-07T06:10:13.032Z,0
2016-11-07T06:11:21.712Z,0
2016-11-07T06:12:30.391Z,0
2016-11-07T06:13:39.076Z,4
2016-11-07T06:14:47.765Z,4
2016-11-07T06:15:56.448Z,0
2016-11-07T06:17:05.135Z,0
2016-11-07T06:18:13.822Z,4
2016-11-07T06:19:22.500Z,4
2016-11-07T06:20:31.188Z,4
2016-11-07T06:21:39.868Z,4
2016-11-07T06:22:48.552Z,4
2016-11-07T06:23:57.244Z,8
2016-11-07T06:25:05.923Z,8
2016-11-07T06:26:14.608Z,8
2016-11-07T06:27:23.289Z,12
2016-11-07T06:28:32.005Z,12
2016-11-07T06:29:40.685Z,16
2016-11-07T06:30:49.365Z,16
2016-11-07T06:31:58.044Z,20
2016-11-07T06:33:07.037Z,24
2016-11-07T06:34:15.752Z,24
2016-11-07T06:35:24.437Z,32
2016-11-07T06:36:33.122Z,36
2016-11-07T06:37:41.805Z,40
2016-11-07T06:38:50.485Z,44
2016-11-07T06:39:59.163Z,52
2016-11-07T06:41:07.910Z,60
2016-11-07T06:42:16.590Z,68
2016-11-07T06:43:25.277Z,80
2016-11-07T06:44:33.977Z,88
2016-11-07T06:45:42.694Z,96
2016-11-07T06:46:51.373Z,108
2016-11-07T06:48:00.053Z,120
2016-11-07T06:49:08.761Z,136
2016-11-07T06:50:17.756Z,148
2016-11-07T06:51:26.443Z,160
2016-11-07T06:52:35.128Z,180
2016-11-07T06:53:43.809Z,196
2016-11-07T06:54:52.531Z,216
2016-11-07T06:56:01.213Z,232
2016-11-07T06:57:09.924Z,252
2016-11-07T06:58:18.606Z,272
2016-11-07T06:59:27.287Z,292
2016-11-07T07:00:35.973Z,316
2016-11-07T07:01:44.657Z,340
2016-11-07T07:02:53.339Z,364
2016-11-07T07:04:02.016Z,392
2016-11-07T07:05:10.701Z,416
2016-11-07T07:06:19.386Z,444
2016-11-07T07:07:28.068Z,472
2016-11-07T07:08:36.757Z,500
2016-11-07T07:09:45.444Z,528
2016-11-07T07:10:54.126Z,556
2016-11-07T07:12:02.813Z,584
2016-11-07T07:13:11.493Z,612
2016-11-07T07:14:20.183Z,644
2016-11-07T07:15:28.902Z,672
2016-11-07T07:16:37.588Z,676
2016-11-07T07:17:46.270Z,720
2016-11-07T07:18:54.955Z,748
2016-11-07T07:20:03.645Z,780
2016-11-07T07:21:12.329Z,812
2016-11-07T07:22:21.013Z,840
2016-11-07T07:23:29.696Z,876
2016-11-07T07:24:38.381Z,908
2016-11-07T07:25:47.059Z,940
2016-11-07T07:26:55.743Z,968
2016-11-07T07:28:04.426Z,1000
2016-11-07T07:29:13.112Z,1032
2016-11-07T07:30:21.829Z,1064
2016-11-07T07:31:30.513Z,1096
2016-11-07T07:32:39.199Z,1124
2016-11-07T07:33:48.195Z,1156
2016-11-07T07:34:56.882Z,1184
2016-11-07T07:36:05.564Z,1212
2016-11-07T07:37:14.248Z,1244
2016-11-07T07:38:22.942Z,1276
2016-11-07T07:39:31.624Z,1312
2016-11-07T07:40:40.341Z,1344
2016-11-07T07:41:49.022Z,1372
2016-11-07T07:42:57.707Z,1400
2016-11-07T07:44:06.389Z,1428
2016-11-07T07:45:15.068Z,1448
2016-11-07T07:46:23.750Z,1484
2016-11-07T07:47:32.429Z,1520
2016-11-07T07:48:41.109Z,1548
2016-11-07T07:49:49.792Z,1588
2016-11-07T07:50:58.781Z,1624
2016-11-07T07:52:07.467Z,1688
2016-11-07T07:53:16.145Z,1712
2016-11-07T07:54:24.825Z,1744
2016-11-07T07:55:33.513Z,1812
2016-11-07T07:56:42.197Z,1884
2016-11-07T07:57:50.878Z,1932
2016-11-07T07:58:59.560Z,1960
2016-11-07T08:00:08.244Z,1988
2016-11-07T08:01:16.928Z,2024
2016-11-07T08:02:25.642Z,2076
2016-11-07T08:03:34.327Z,2136
2016-11-07T08:04:43.021Z,2132
2016-11-07T08:05:51.699Z,2160
2016-11-07T08:07:00.430Z,2268
2016-11-07T08:08:09.124Z,2376
2016-11-07T08:09:17.814Z,2416
2016-11-07T08:10:26.520Z,2424
2016-11-07T08:11:35.566Z,2444
2016-11-07T08:12:44.262Z,2560
2016-11-07T08:13:52.974Z,2640
2016-11-07T08:15:01.673Z,2728
2016-11-07T08:16:10.377Z,2812
2016-11-07T08:17:19.534Z,2872
2016-11-07T08:18:28.223Z,2932
2016-11-07T08:19:36.906Z,3016
2016-11-07T08:20:45.627Z,3128
2016-11-07T08:21:54.309Z,3192
2016-11-07T08:23:02.991Z,3120
2016-11-07T08:24:11.672Z,3084
2016-11-07T08:25:20.355Z,3072
2016-11-07T08:26:29.040Z,3120
2016-11-07T08:27:37.721Z,3132
2016-11-07T08:28:46.402Z,3228
2016-11-07T08:29:55.396Z,3288
2016-11-07T08:31:04.081Z,3340
2016-11-07T08:32:12.760Z,3340
2016-11-07T08:33:21.509Z,3296
2016-11-07T08:34:30.192Z,3360
2016-11-07T08:35:38.882Z,3420
2016-11-07T08:36:47.564Z,3548
2016-11-07T08:37:56.252Z,3636
2016-11-07T08:39:04.933Z,3728
2016-11-07T08:40:13.611Z,3856
2016-11-07T08:41:22.299Z,3884
2016-11-07T08:42:30.990Z,3736
2016-11-07T08:43:39.670Z,3576
2016-11-07T08:44:48.349Z,3548
2016-11-07T08:45:57.037Z,3552
2016-11-07T08:47:05.719Z,3556
2016-11-07T08:48:14.413Z,3588
2016-11-07T08:49:23.422Z,3624
2016-11-07T08:50:32.121Z,3584
2016-11-07T08:51:40.801Z,3580
2016-11-07T08:52:49.491Z,3612
2016-11-07T08:53:58.177Z,3728
2016-11-07T08:55:06.860Z,3628
2016-11-07T08:56:15.545Z,3792
2016-11-07T08:57:24.231Z,3924
2016-11-07T08:58:32.917Z,4088
2016-11-07T08:59:41.607Z,4196
2016-11-07T09:00:50.294Z,4496
2016-11-07T09:01:58.975Z,4528
2016-11-07T09:03:07.668Z,4464
2016-11-07T09:04:16.358Z,4728
2016-11-07T09:05:25.044Z,4756
2016-11-07T09:06:33.726Z,4708
2016-11-07T09:07:42.410Z,4472
2016-11-07T09:08:51.098Z,4560
2016-11-07T09:09:59.787Z,4380
2016-11-07T09:11:08.475Z,4308
2016-11-07T09:12:17.157Z,4328
2016-11-07T09:13:25.842Z,4396
2016-11-07T09:14:34.526Z,4348
2016-11-07T09:15:43.242Z,4500
2016-11-07T09:16:51.973Z,4448
2016-11-07T09:18:00.660Z,4368
2016-11-07T09:19:09.345Z,4388
2016-11-07T09:20:18.035Z,4332
2016-11-07T09:21:26.722Z,4384
2016-11-07T09:22:35.406Z,4340
2016-11-07T09:23:44.093Z,4280
2016-11-07T09:24:52.779Z,4236
2016-11-07T09:26:01.463Z,4228
2016-11-07T09:27:10.147Z,4164
2016-11-07T09:28:18.866Z,4140
2016-11-07T09:29:27.546Z,4120
2016-11-07T09:30:36.228Z,4284
2016-11-07T09:31:44.916Z,4468
2016-11-07T09:32:53.603Z,4512
2016-11-07T09:34:02.318Z,4760
2016-11-07T09:35:11.007Z,5200
2016-11-07T09:36:19.686Z,5676
2016-11-07T09:37:28.367Z,6024
2016-11-07T09:38:37.048Z,6128
2016-11-07T09:39:45.730Z,6192
2016-11-07T09:40:54.408Z,6364
2016-11-07T09:42:03.408Z,6436
2016-11-07T09:43:12.091Z,6724
2016-11-07T09:44:20.775Z,6896
2016-11-07T09:45:29.460Z,6956
2016-11-07T09:46:38.139Z,7024
2016-11-07T09:47:46.968Z,7028
2016-11-07T09:48:55.698Z,6632
2016-11-07T09:50:04.378Z,6192
2016-11-07T09:51:13.060Z,6088
2016-11-07T09:52:21.964Z,6336
2016-11-07T09:53:30.647Z,6504
2016-11-07T09:54:39.332Z,6480
2016-11-07T09:55:48.013Z,6584
2016-11-07T09:56:56.715Z,6616
2016-11-07T09:58:05.400Z,6804
2016-11-07T09:59:14.099Z,6956
2016-11-07T10:00:22.832Z,6992
2016-11-07T10:01:31.516Z,6992
2016-11-07T10:02:40.195Z,6992
2016-11-07T10:03:48.877Z,6828
2016-11-07T10:04:57.589Z,6616
2016-11-07T10:06:06.272Z,6544
2016-11-07T10:07:14.951Z,6580
2016-11-07T10:08:23.632Z,6552
2016-11-07T10:09:32.331Z,6424
2016-11-07T10:10:41.023Z,6396
2016-11-07T10:11:49.747Z,6332
2016-11-07T10:12:58.428Z,6308
2016-11-07T10:14:07.114Z,6372
2016-11-07T10:15:15.799Z,6408
2016-11-07T10:16:24.482Z,6472
2016-11-07T10:17:33.165Z,6632
2016-11-07T10:18:41.860Z,6580
2016-11-07T10:19:50.544Z,6556
2016-11-07T10:20:59.246Z,6472
2016-11-07T10:22:07.964Z,6408
2016-11-07T10:23:16.648Z,6416
2016-11-07T10:24:25.663Z,6492
2016-11-07T10:25:34.347Z,6356
2016-11-07T10:26:43.071Z,6464
2016-11-07T10:27:51.760Z,6732
2016-11-07T10:29:00.480Z,6988
2016-11-07T10:30:09.173Z,7288
2016-11-07T10:31:17.860Z,7620
2016-11-07T10:32:26.548Z,8044
2016-11-07T10:33:35.260Z,10336
2016-11-07T10:34:43.943Z,10416
2016-11-07T10:35:52.630Z,10744
2016-11-07T10:37:01.320Z,9532
2016-11-07T10:38:10.009Z,9708
2016-11-07T10:39:18.767Z,10224
2016-11-07T10:40:27.449Z,10360
2016-11-07T10:41:36.136Z,9768
2016-11-07T10:42:44.823Z,9552
2016-11-07T10:43:53.571Z,10576
2016-11-07T10:45:02.253Z,10344
2016-11-07T10:46:10.943Z,11556
2016-11-07T10:47:19.633Z,12820
2016-11-07T10:48:28.320Z,12460
2016-11-07T10:49:37.002Z,13636
2016-11-07T10:50:45.686Z,13420
2016-11-07T10:51:54.377Z,13284
2016-11-07T10:53:03.100Z,14436
2016-11-07T10:54:11.793Z,13292
2016-11-07T10:55:20.504Z,15520
2016-11-07T10:56:29.187Z,16384
2016-11-07T10:57:37.868Z,16032
2016-11-07T10:58:46.552Z,16384
2016-11-07T10:59:55.239Z,16288
2016-11-07T11:01:03.921Z,16704
2016-11-07T11:02:12.606Z,17632
2016-11-07T11:03:21.289Z,19328
2016-11-07T11:04:29.998Z,17248
2016-11-07T11:05:38.691Z,16736
2016-11-07T11:06:47.381Z,16288
2016-11-07T11:07:56.069Z,18656
2016-11-07T11:09:04.755Z,18560
2016-11-07T11:10:13.445Z,18880
2016-11-07T11:11:22.154Z,19008
2016-11-07T11:12:30.848Z,18304
2016-11-07T11:13:39.541Z,19392
2016-11-07T11:14:48.230Z,19648
2016-11-07T11:15:56.910Z,19552
2016-11-07T11:17:05.605Z,18240
2016-11-07T11:18:14.293Z,20960
2016-11-07T11:19:22.981Z,18048
2016-11-07T11:20:31.668Z,19808
2016-11-07T11:21:40.357Z,21056
2016-11-07T11:22:49.043Z,21600
2016-11-07T11:23:57.733Z,24192
2016-11-07T11:25:06.420Z,22560
2016-11-07T11:26:15.111Z,23008
2016-11-07T11:27:23.806Z,22176
2016-11-07T11:28:32.490Z,22944
2016-11-07T11:29:41.225Z,22848
2016-11-07T11:30:49.909Z,24736
2016-11-07T11:31:58.601Z,26592
2016-11-07T11:33:07.291Z,26528
2016-11-07T11:34:15.984Z,24992
2016-11-07T11:35:24.711Z,25536
2016-11-07T11:36:33.410Z,25792
2016-11-07T11:37:42.094Z,25664
2016-11-07T11:38:50.792Z,29472
2016-11-07T11:39:59.483Z,26976
2016-11-07T11:41:08.204Z,17152
2016-11-07T11:42:16.901Z,15872
2016-11-07T11:43:25.599Z,16352
2016-11-07T11:44:34.300Z,17536
2016-11-07T11:45:42.988Z,17760
2016-11-07T11:46:51.680Z,17184
2016-11-07T11:48:00.390Z,16320
2016-11-07T11:49:09.083Z,16096
2016-11-07T11:50:17.771Z,16256
2016-11-07T11:51:26.505Z,15264
2016-11-07T11:52:35.198Z,14688
2016-11-07T11:53:43.882Z,14560
2016-11-07T11:54:52.610Z,14944
2016-11-07T11:56:01.306Z,14720
2016-11-07T11:57:09.999Z,14880
2016-11-07T11:58:18.689Z,13816
2016-11-07T11:59:27.886Z,13904
2016-11-07T12:00:36.575Z,13656
2016-11-07T12:01:45.575Z,13188
2016-11-07T12:02:54.448Z,13836
2016-11-07T12:04:03.558Z,11688
2016-11-07T12:05:12.305Z,11400
2016-11-07T12:06:21.000Z,10276
2016-11-07T12:07:29.694Z,10304
2016-11-07T12:08:38.383Z,11336
2016-11-07T12:09:47.078Z,10692
2016-11-07T12:10:55.769Z,11304
2016-11-07T12:12:04.490Z,11804
2016-11-07T12:13:13.181Z,12408
2016-11-07T12:14:21.882Z,11872
2016-11-07T12:15:30.625Z,11548
2016-11-07T12:16:39.319Z,12764
2016-11-07T12:17:48.009Z,12580
2016-11-07T12:18:56.712Z,13376
2016-11-07T12:20:05.417Z,14048
2016-11-07T12:21:14.153Z,14816
2016-11-07T12:22:22.855Z,13960
2016-11-07T12:23:31.670Z,13784
2016-11-07T12:24:40.391Z,13552
2016-11-07T12:25:49.398Z,13080
2016-11-07T12:26:58.412Z,11796
2016-11-07T12:28:07.102Z,11016
2016-11-07T12:29:15.791Z,10440
2016-11-07T12:30:24.483Z,10520
2016-11-07T12:31:33.191Z,11704
2016-11-07T12:32:42.222Z,12000
2016-11-07T12:33:50.917Z,12612
2016-11-07T12:34:59.619Z,13020
2016-11-07T12:36:08.638Z,13060
2016-11-07T12:37:17.345Z,13572
2016-11-07T12:38:26.038Z,13864
2016-11-07T12:39:34.729Z,13744
2016-11-07T12:40:43.415Z,12724
2016-11-07T12:41:52.129Z,11888
2016-11-07T12:43:00.823Z,10980
2016-11-07T12:44:09.533Z,11172
2016-11-07T12:45:18.224Z,10956
2016-11-07T12:46:26.919Z,10400
2016-11-07T12:47:35.674Z,10136
2016-11-07T12:48:44.362Z,9388
2016-11-07T12:49:53.054Z,9024
2016-11-07T12:51:01.741Z,8712
2016-11-07T12:52:10.431Z,8428
2016-11-07T12:53:19.120Z,8464
2016-11-07T12:54:27.809Z,8508
2016-11-07T12:55:36.499Z,8104
2016-11-07T12:56:45.196Z,8512
2016-11-07T12:57:53.884Z,8200
2016-11-07T12:59:02.575Z,7732
2016-11-07T13:00:11.279Z,7852
2016-11-07T13:01:19.968Z,7292
2016-11-07T13:02:28.666Z,6980
2016-11-07T13:03:37.353Z,6980
2016-11-07T13:04:46.041Z,6860
2016-11-07T13:05:54.729Z,7032
2016-11-07T13:07:03.734Z,6964
2016-11-07T13:08:12.420Z,7156
2016-11-07T13:09:21.108Z,7388
2016-11-07T13:10:29.798Z,7396
2016-11-07T13:11:38.488Z,7964
2016-11-07T13:12:47.191Z,8304
2016-11-07T13:13:55.884Z,8484
2016-11-07T13:15:04.570Z,8696
2016-11-07T13:16:13.260Z,8308
2016-11-07T13:17:21.955Z,7928
2016-11-07T13:18:30.678Z,7568
2016-11-07T13:19:39.423Z,7300
2016-11-07T13:20:48.151Z,7716
2016-11-07T13:21:56.898Z,8328
2016-11-07T13:23:05.596Z,8752
2016-11-07T13:24:14.285Z,8764
2016-11-07T13:25:22.981Z,9532
2016-11-07T13:26:31.711Z,8184
2016-11-07T13:27:40.408Z,7312
2016-11-07T13:28:49.092Z,7240
2016-11-07T13:29:57.780Z,7172
2016-11-07T13:31:06.467Z,8376
2016-11-07T13:32:15.151Z,7652
2016-11-07T13:33:23.840Z,6528
2016-11-07T13:34:32.526Z,7104
2016-11-07T13:35:41.206Z,6284
2016-11-07T13:36:49.891Z,7316
2016-11-07T13:37:58.578Z,8044
2016-11-07T13:39:07.280Z,6680
2016-11-07T13:40:15.965Z,5680
2016-11-07T13:41:24.966Z,5344
2016-11-07T13:42:33.653Z,4316
2016-11-07T13:43:42.462Z,3952
2016-11-07T13:44:51.150Z,3780
2016-11-07T13:45:59.837Z,3684
2016-11-07T13:47:08.525Z,3632
2016-11-07T13:48:17.214Z,3668
2016-11-07T13:49:25.902Z,3856
2016-11-07T13:50:34.909Z,3744
2016-11-07T13:51:43.597Z,3556
2016-11-07T13:52:52.332Z,3368
2016-11-07T13:54:01.068Z,3348
2016-11-07T13:55:09.755Z,3444
2016-11-07T13:56:18.454Z,3484
2016-11-07T13:57:27.149Z,3512
2016-11-07T13:58:35.839Z,3588
2016-11-07T13:59:44.530Z,3588
2016-11-07T14:00:53.221Z,3584
2016-11-07T14:02:01.907Z,3564
2016-11-07T14:03:10.591Z,3464
2016-11-07T14:04:19.280Z,3388
2016-11-07T14:05:27.964Z,3300
2016-11-07T14:06:36.651Z,3216
2016-11-07T14:07:45.336Z,3124
2016-11-07T14:08:54.062Z,3040
2016-11-07T14:10:02.745Z,2916
2016-11-07T14:11:11.468Z,2784
2016-11-07T14:12:20.188Z,2612
2016-11-07T14:13:28.872Z,2416
2016-11-07T14:14:37.560Z,2240
2016-11-07T14:15:46.249Z,2100
2016-11-07T14:16:54.944Z,2004
2016-11-07T14:18:03.641Z,1928
2016-11-07T14:19:12.332Z,1856
2016-11-07T14:20:21.018Z,1788
2016-11-07T14:21:29.711Z,1728
2016-11-07T14:22:38.397Z,1676
2016-11-07T14:23:47.083Z,1632
2016-11-07T14:24:55.765Z,1592
2016-11-07T14:26:04.449Z,1556
2016-11-07T14:27:13.142Z,1576
2016-11-07T14:28:21.829Z,1604
2016-11-07T14:29:30.524Z,1544
2016-11-07T14:30:39.231Z,1460
2016-11-07T14:31:47.913Z,1368
2016-11-07T14:32:56.597Z,1292
2016-11-07T14:34:05.283Z,1216
2016-11-07T14:35:14.004Z,1144
2016-11-07T14:36:22.727Z,1084
2016-11-07T14:37:31.413Z,1036
2016-11-07T14:38:40.095Z,992
2016-11-07T14:39:48.779Z,956
2016-11-07T14:40:57.471Z,932
2016-11-07T14:42:06.155Z,896
2016-11-07T14:43:14.930Z,860
2016-11-07T14:44:23.657Z,812
2016-11-07T14:45:32.343Z,776
2016-11-07T14:46:41.026Z,744
2016-11-07T14:47:49.744Z,720
2016-11-07T14:48:58.432Z,688
2016-11-07T14:50:07.123Z,660
2016-11-07T14:51:15.805Z,624
2016-11-07T14:52:24.530Z,580
2016-11-07T14:53:33.218Z,544
2016-11-07T14:54:41.930Z,508
2016-11-07T14:56:59.809Z,440
2016-11-07T14:58:08.489Z,416
2016-11-07T14:59:17.211Z,384
2016-11-07T15:00:25.892Z,352
2016-11-07T15:01:34.574Z,324
2016-11-07T15:02:43.256Z,296
2016-11-07T15:03:51.933Z,276
2016-11-07T15:05:00.616Z,256
2016-11-07T15:06:09.306Z,236
2016-11-07T15:07:18.018Z,220
2016-11-07T15:08:26.736Z,204
2016-11-07T15:09:35.419Z,188
2016-11-07T15:10:44.103Z,176
2016-11-07T15:11:52.792Z,160
2016-11-07T15:13:01.493Z,144
2016-11-07T15:14:10.172Z,132
2016-11-07T15:15:18.859Z,116
2016-11-07T15:16:27.543Z,104
2016-11-07T15:17:36.222Z,92
2016-11-07T15:18:44.907Z,84
2016-11-07T15:19:53.590Z,72
2016-11-07T15:21:02.271Z,64
2016-11-07T15:22:10.966Z,56
2016-11-07T15:23:19.646Z,48
2016-11-07T15:24:28.333Z,40
2016-11-07T15:25:37.022Z,36
2016-11-07T15:26:45.736Z,32
2016-11-07T15:27:54.414Z,28
2016-11-07T15:29:03.090Z,24
2016-11-07T15:30:11.918Z,24
2016-11-07T15:31:21.270Z,16
2016-11-07T15:32:30.599Z,16
2016-11-07T15:33:39.275Z,16
2016-11-07T15:34:48.343Z,12
2016-11-07T15:35:57.397Z,12
2016-11-07T15:37:06.083Z,8
2016-11-07T15:38:15.135Z,8
2016-11-07T15:39:23.822Z,4
2016-11-07T15:40:32.502Z,4
2016-11-07T15:41:41.180Z,4
2016-11-07T15:42:49.864Z,4
2016-11-07T15:43:58.577Z,4
2016-11-07T15:45:07.253Z,0
2016-11-07T15:46:15.931Z,4
2016-11-07T15:47:24.609Z,4
2016-11-07T15:48:33.289Z,0
2016-11-07T15:49:41.974Z,0
2016-11-07T15:50:50.658Z,4
2016-11-07T15:51:59.337Z,4
2016-11-07T15:53:08.023Z,0
2016-11-07T15:54:16.702Z,0
2016-11-07T15:55:25.389Z,0
2016-11-07T15:56:34.073Z,0